sensor_id;sensor_type;location;lat;lon;timestamp;P1;durP1;ratioP1;P2;durP2;ratioP2
54683;SDS011;40582;53.100;6.686;2023-02-28T00:01:31;13.45;;;6.35;;
54683;SDS011;40582;53.100;6.686;2023-02-28T00:03:57;14.68;;;6.05;;
54683;SDS011;40582;53.100;6.686;2023-02-28T00:06:23;17.15;;;6.93;;
54683;SDS011;40582;53.100;6.686;2023-02-28T00:08:49;12.85;;;5.40;;
54683;SDS011;40582;53.100;6.686;2023-02-28T00:11:15;15.25;;;6.45;;
54683;SDS011;40582;53.100;6.686;2023-02-28T00:13:42;15.65;;;5.85;;
54683;SDS011;40582;53.100;6.686;2023-02-28T00:16:12;10.73;;;5.82;;
54683;SDS011;40582;53.100;6.686;2023-02-28T00:18:43;13.38;;;6.15;;
54683;SDS011;40582;53.100;6.686;2023-02-28T00:21:09;14.60;;;5.20;;
54683;SDS011;40582;53.100;6.686;2023-02-28T00:23:35;10.25;;;4.63;;
54683;SDS011;40582;53.100;6.686;2023-02-28T00:26:01;12.98;;;4.88;;
54683;SDS011;40582;53.100;6.686;2023-02-28T00:28:27;12.60;;;4.68;;
54683;SDS011;40582;53.100;6.686;2023-02-28T00:30:53;9.45;;;4.65;;
54683;SDS011;40582;53.100;6.686;2023-02-28T00:33:19;11.25;;;5.30;;
54683;SDS011;40582;53.100;6.686;2023-02-28T00:35:45;17.17;;;5.70;;
54683;SDS011;40582;53.100;6.686;2023-02-28T00:38:11;11.50;;;4.90;;
54683;SDS011;40582;53.100;6.686;2023-02-28T00:40:38;19.00;;;6.00;;
54683;SDS011;40582;53.100;6.686;2023-02-28T00:43:03;13.52;;;6.15;;
54683;SDS011;40582;53.100;6.686;2023-02-28T00:45:29;14.77;;;5.97;;
54683;SDS011;40582;53.100;6.686;2023-02-28T00:47:55;11.50;;;5.60;;
54683;SDS011;40582;53.100;6.686;2023-02-28T00:50:21;12.30;;;5.32;;
54683;SDS011;40582;53.100;6.686;2023-02-28T00:52:47;16.70;;;6.25;;
54683;SDS011;40582;53.100;6.686;2023-02-28T00:55:13;17.60;;;6.70;;
54683;SDS011;40582;53.100;6.686;2023-02-28T00:57:39;14.15;;;5.90;;
54683;SDS011;40582;53.100;6.686;2023-02-28T01:00:05;13.35;;;5.82;;
54683;SDS011;40582;53.100;6.686;2023-02-28T01:02:32;13.40;;;5.75;;
54683;SDS011;40582;53.100;6.686;2023-02-28T01:04:58;13.18;;;5.07;;
54683;SDS011;40582;53.100;6.686;2023-02-28T01:07:23;13.25;;;5.10;;
54683;SDS011;40582;53.100;6.686;2023-02-28T01:09:49;15.18;;;5.10;;
54683;SDS011;40582;53.100;6.686;2023-02-28T01:12:15;13.20;;;5.57;;
54683;SDS011;40582;53.100;6.686;2023-02-28T01:14:41;10.57;;;5.32;;
54683;SDS011;40582;53.100;6.686;2023-02-28T01:17:07;13.98;;;6.15;;
54683;SDS011;40582;53.100;6.686;2023-02-28T01:19:33;16.05;;;5.95;;
54683;SDS011;40582;53.100;6.686;2023-02-28T01:22:01;17.75;;;6.10;;
54683;SDS011;40582;53.100;6.686;2023-02-28T01:24:28;15.05;;;5.60;;
54683;SDS011;40582;53.100;6.686;2023-02-28T01:26:54;12.38;;;5.72;;
54683;SDS011;40582;53.100;6.686;2023-02-28T01:29:20;11.63;;;5.70;;
54683;SDS011;40582;53.100;6.686;2023-02-28T01:31:45;16.73;;;6.18;;
54683;SDS011;40582;53.100;6.686;2023-02-28T01:34:11;15.23;;;5.68;;
54683;SDS011;40582;53.100;6.686;2023-02-28T01:36:37;13.75;;;6.07;;
54683;SDS011;40582;53.100;6.686;2023-02-28T01:39:03;13.25;;;5.60;;
54683;SDS011;40582;53.100;6.686;2023-02-28T01:41:30;13.18;;;6.18;;
54683;SDS011;40582;53.100;6.686;2023-02-28T01:44:02;12.65;;;5.57;;
54683;SDS011;40582;53.100;6.686;2023-02-28T01:46:35;13.20;;;5.80;;
54683;SDS011;40582;53.100;6.686;2023-02-28T01:49:14;13.95;;;5.72;;
54683;SDS011;40582;53.100;6.686;2023-02-28T01:51:44;12.68;;;5.40;;
54683;SDS011;40582;53.100;6.686;2023-02-28T01:54:21;15.65;;;5.97;;
54683;SDS011;40582;53.100;6.686;2023-02-28T01:56:57;15.77;;;6.18;;
54683;SDS011;40582;53.100;6.686;2023-02-28T01:59:29;21.90;;;6.45;;
54683;SDS011;40582;53.100;6.686;2023-02-28T02:02:05;16.08;;;6.70;;
54683;SDS011;40582;53.100;6.686;2023-02-28T02:04:37;21.05;;;7.82;;
54683;SDS011;40582;53.100;6.686;2023-02-28T02:07:11;19.98;;;7.78;;
54683;SDS011;40582;53.100;6.686;2023-02-28T02:09:39;22.65;;;8.90;;
54683;SDS011;40582;53.100;6.686;2023-02-28T02:12:08;26.58;;;8.20;;
54683;SDS011;40582;53.100;6.686;2023-02-28T02:15:05;30.40;;;8.60;;
54683;SDS011;40582;53.100;6.686;2023-02-28T02:17:47;24.50;;;8.73;;
54683;SDS011;40582;53.100;6.686;2023-02-28T02:20:32;20.48;;;8.23;;
54683;SDS011;40582;53.100;6.686;2023-02-28T02:39:36;12.95;;;7.53;;
54683;SDS011;40582;53.100;6.686;2023-02-28T02:42:16;17.35;;;8.05;;
54683;SDS011;40582;53.100;6.686;2023-02-28T02:44:55;16.50;;;8.48;;
54683;SDS011;40582;53.100;6.686;2023-02-28T02:47:34;16.27;;;8.25;;
54683;SDS011;40582;53.100;6.686;2023-02-28T02:50:03;15.85;;;7.70;;
54683;SDS011;40582;53.100;6.686;2023-02-28T02:52:39;14.05;;;7.57;;
54683;SDS011;40582;53.100;6.686;2023-02-28T02:55:10;17.55;;;7.80;;
54683;SDS011;40582;53.100;6.686;2023-02-28T02:57:59;15.32;;;7.35;;
54683;SDS011;40582;53.100;6.686;2023-02-28T03:00:28;17.85;;;7.45;;
54683;SDS011;40582;53.100;6.686;2023-02-28T03:03:02;19.23;;;8.27;;
54683;SDS011;40582;53.100;6.686;2023-02-28T03:05:30;14.80;;;7.80;;
54683;SDS011;40582;53.100;6.686;2023-02-28T03:08:02;13.40;;;8.00;;
54683;SDS011;40582;53.100;6.686;2023-02-28T03:10:35;14.40;;;8.65;;
54683;SDS011;40582;53.100;6.686;2023-02-28T03:13:16;14.60;;;8.05;;
54683;SDS011;40582;53.100;6.686;2023-02-28T03:16:17;18.52;;;8.45;;
54683;SDS011;40582;53.100;6.686;2023-02-28T03:26:45;13.43;;;8.70;;
54683;SDS011;40582;53.100;6.686;2023-02-28T03:31:54;16.27;;;8.80;;
54683;SDS011;40582;53.100;6.686;2023-02-28T03:34:29;12.65;;;7.85;;
54683;SDS011;40582;53.100;6.686;2023-02-28T03:37:04;12.07;;;7.73;;
54683;SDS011;40582;53.100;6.686;2023-02-28T03:42:08;12.23;;;7.30;;
54683;SDS011;40582;53.100;6.686;2023-02-28T03:44:39;8.77;;;6.95;;
54683;SDS011;40582;53.100;6.686;2023-02-28T03:47:14;10.82;;;7.03;;
54683;SDS011;40582;53.100;6.686;2023-02-28T03:49:44;11.32;;;7.30;;
54683;SDS011;40582;53.100;6.686;2023-02-28T03:52:14;11.13;;;7.03;;
54683;SDS011;40582;53.100;6.686;2023-02-28T03:54:43;9.57;;;6.22;;
54683;SDS011;40582;53.100;6.686;2023-02-28T04:00:12;12.90;;;7.10;;
54683;SDS011;40582;53.100;6.686;2023-02-28T04:02:42;9.95;;;6.95;;
54683;SDS011;40582;53.100;6.686;2023-02-28T04:05:08;9.68;;;7.22;;
54683;SDS011;40582;53.100;6.686;2023-02-28T04:07:34;11.02;;;6.85;;
54683;SDS011;40582;53.100;6.686;2023-02-28T04:10:00;13.25;;;7.22;;
54683;SDS011;40582;53.100;6.686;2023-02-28T04:12:25;11.48;;;7.43;;
54683;SDS011;40582;53.100;6.686;2023-02-28T04:14:51;9.23;;;7.32;;
54683;SDS011;40582;53.100;6.686;2023-02-28T04:17:17;11.32;;;6.90;;
54683;SDS011;40582;53.100;6.686;2023-02-28T04:19:43;12.05;;;7.53;;
54683;SDS011;40582;53.100;6.686;2023-02-28T04:22:09;11.48;;;7.68;;
54683;SDS011;40582;53.100;6.686;2023-02-28T04:24:35;13.60;;;7.88;;
54683;SDS011;40582;53.100;6.686;2023-02-28T04:27:01;14.50;;;7.70;;
54683;SDS011;40582;53.100;6.686;2023-02-28T04:29:28;12.13;;;7.22;;
54683;SDS011;40582;53.100;6.686;2023-02-28T04:31:58;15.27;;;8.00;;
54683;SDS011;40582;53.100;6.686;2023-02-28T04:34:26;14.30;;;8.43;;
54683;SDS011;40582;53.100;6.686;2023-02-28T04:36:53;10.18;;;7.93;;
54683;SDS011;40582;53.100;6.686;2023-02-28T04:39:23;14.32;;;8.43;;
54683;SDS011;40582;53.100;6.686;2023-02-28T04:41:49;13.95;;;8.40;;
54683;SDS011;40582;53.100;6.686;2023-02-28T04:44:15;12.32;;;8.68;;
54683;SDS011;40582;53.100;6.686;2023-02-28T04:46:41;12.40;;;8.63;;
54683;SDS011;40582;53.100;6.686;2023-02-28T04:49:08;13.68;;;8.48;;
54683;SDS011;40582;53.100;6.686;2023-02-28T04:51:36;11.60;;;8.50;;
54683;SDS011;40582;53.100;6.686;2023-02-28T04:54:02;14.93;;;9.18;;
54683;SDS011;40582;53.100;6.686;2023-02-28T04:56:28;12.85;;;8.60;;
54683;SDS011;40582;53.100;6.686;2023-02-28T04:58:53;18.17;;;9.48;;
54683;SDS011;40582;53.100;6.686;2023-02-28T05:01:29;12.20;;;9.48;;
54683;SDS011;40582;53.100;6.686;2023-02-28T05:03:58;12.45;;;8.77;;
54683;SDS011;40582;53.100;6.686;2023-02-28T05:06:25;12.85;;;9.18;;
54683;SDS011;40582;53.100;6.686;2023-02-28T05:08:52;11.55;;;8.85;;
54683;SDS011;40582;53.100;6.686;2023-02-28T05:11:20;13.00;;;8.95;;
54683;SDS011;40582;53.100;6.686;2023-02-28T05:13:48;14.95;;;9.60;;
54683;SDS011;40582;53.100;6.686;2023-02-28T05:16:14;14.80;;;9.50;;
54683;SDS011;40582;53.100;6.686;2023-02-28T05:18:41;14.77;;;9.18;;
54683;SDS011;40582;53.100;6.686;2023-02-28T05:21:15;16.25;;;9.18;;
54683;SDS011;40582;53.100;6.686;2023-02-28T05:23:51;12.55;;;8.98;;
54683;SDS011;40582;53.100;6.686;2023-02-28T05:26:17;14.18;;;9.88;;
54683;SDS011;40582;53.100;6.686;2023-02-28T05:28:43;11.60;;;9.38;;
54683;SDS011;40582;53.100;6.686;2023-02-28T05:31:10;12.15;;;9.15;;
54683;SDS011;40582;53.100;6.686;2023-02-28T05:33:36;13.55;;;10.20;;
54683;SDS011;40582;53.100;6.686;2023-02-28T05:36:03;13.88;;;10.60;;
54683;SDS011;40582;53.100;6.686;2023-02-28T05:38:29;15.55;;;10.85;;
54683;SDS011;40582;53.100;6.686;2023-02-28T05:40:55;14.80;;;11.15;;
54683;SDS011;40582;53.100;6.686;2023-02-28T05:43:21;14.98;;;10.93;;
54683;SDS011;40582;53.100;6.686;2023-02-28T05:45:47;18.65;;;13.27;;
54683;SDS011;40582;53.100;6.686;2023-02-28T05:48:13;17.90;;;12.45;;
54683;SDS011;40582;53.100;6.686;2023-02-28T05:50:38;18.45;;;12.77;;
54683;SDS011;40582;53.100;6.686;2023-02-28T05:53:04;18.90;;;12.50;;
54683;SDS011;40582;53.100;6.686;2023-02-28T05:55:30;19.13;;;13.32;;
54683;SDS011;40582;53.100;6.686;2023-02-28T05:57:56;24.13;;;14.00;;
54683;SDS011;40582;53.100;6.686;2023-02-28T06:00:21;19.48;;;14.07;;
54683;SDS011;40582;53.100;6.686;2023-02-28T06:02:47;19.20;;;13.10;;
54683;SDS011;40582;53.100;6.686;2023-02-28T06:05:14;19.50;;;12.30;;
54683;SDS011;40582;53.100;6.686;2023-02-28T06:07:41;25.77;;;13.60;;
54683;SDS011;40582;53.100;6.686;2023-02-28T06:10:08;21.05;;;13.10;;
54683;SDS011;40582;53.100;6.686;2023-02-28T06:12:38;19.65;;;13.50;;
54683;SDS011;40582;53.100;6.686;2023-02-28T06:15:04;19.85;;;14.23;;
54683;SDS011;40582;53.100;6.686;2023-02-28T06:17:30;17.52;;;13.98;;
54683;SDS011;40582;53.100;6.686;2023-02-28T06:19:55;19.55;;;13.68;;
54683;SDS011;40582;53.100;6.686;2023-02-28T06:22:21;17.98;;;13.57;;
54683;SDS011;40582;53.100;6.686;2023-02-28T06:24:47;19.88;;;13.55;;
54683;SDS011;40582;53.100;6.686;2023-02-28T06:27:12;23.10;;;14.20;;
54683;SDS011;40582;53.100;6.686;2023-02-28T06:29:38;19.70;;;13.90;;
54683;SDS011;40582;53.100;6.686;2023-02-28T06:32:07;19.85;;;14.35;;
54683;SDS011;40582;53.100;6.686;2023-02-28T06:34:33;18.50;;;13.60;;
54683;SDS011;40582;53.100;6.686;2023-02-28T06:36:59;26.52;;;14.63;;
54683;SDS011;40582;53.100;6.686;2023-02-28T06:39:27;19.33;;;14.75;;
54683;SDS011;40582;53.100;6.686;2023-02-28T06:41:54;20.73;;;14.07;;
54683;SDS011;40582;53.100;6.686;2023-02-28T06:44:19;17.63;;;14.00;;
54683;SDS011;40582;53.100;6.686;2023-02-28T06:46:45;21.27;;;14.77;;
54683;SDS011;40582;53.100;6.686;2023-02-28T06:49:12;23.60;;;14.88;;
54683;SDS011;40582;53.100;6.686;2023-02-28T06:51:38;19.77;;;14.65;;
54683;SDS011;40582;53.100;6.686;2023-02-28T06:54:06;18.02;;;13.30;;
54683;SDS011;40582;53.100;6.686;2023-02-28T06:56:35;22.45;;;14.65;;
54683;SDS011;40582;53.100;6.686;2023-02-28T06:59:01;20.77;;;14.50;;
54683;SDS011;40582;53.100;6.686;2023-02-28T07:01:29;20.92;;;14.63;;
54683;SDS011;40582;53.100;6.686;2023-02-28T07:03:56;22.05;;;14.10;;
54683;SDS011;40582;53.100;6.686;2023-02-28T07:06:23;21.38;;;14.85;;
54683;SDS011;40582;53.100;6.686;2023-02-28T07:08:52;22.63;;;14.45;;
54683;SDS011;40582;53.100;6.686;2023-02-28T07:11:19;29.67;;;15.90;;
54683;SDS011;40582;53.100;6.686;2023-02-28T07:13:47;21.73;;;15.10;;
54683;SDS011;40582;53.100;6.686;2023-02-28T07:16:14;22.88;;;15.27;;
54683;SDS011;40582;53.100;6.686;2023-02-28T07:18:40;22.73;;;14.63;;
54683;SDS011;40582;53.100;6.686;2023-02-28T07:21:06;22.80;;;14.90;;
54683;SDS011;40582;53.100;6.686;2023-02-28T07:23:33;28.50;;;16.77;;
54683;SDS011;40582;53.100;6.686;2023-02-28T07:26:00;30.38;;;15.77;;
54683;SDS011;40582;53.100;6.686;2023-02-28T07:28:26;25.85;;;16.85;;
54683;SDS011;40582;53.100;6.686;2023-02-28T07:30:52;21.83;;;16.08;;
54683;SDS011;40582;53.100;6.686;2023-02-28T07:33:18;26.63;;;15.45;;
54683;SDS011;40582;53.100;6.686;2023-02-28T07:35:44;23.92;;;16.58;;
54683;SDS011;40582;53.100;6.686;2023-02-28T07:38:10;26.52;;;17.67;;
54683;SDS011;40582;53.100;6.686;2023-02-28T07:40:36;23.17;;;17.13;;
54683;SDS011;40582;53.100;6.686;2023-02-28T07:43:02;25.65;;;16.05;;
54683;SDS011;40582;53.100;6.686;2023-02-28T07:45:28;26.38;;;16.95;;
54683;SDS011;40582;53.100;6.686;2023-02-28T07:47:55;25.48;;;16.55;;
54683;SDS011;40582;53.100;6.686;2023-02-28T07:50:21;23.00;;;16.42;;
54683;SDS011;40582;53.100;6.686;2023-02-28T07:52:47;26.00;;;17.02;;
54683;SDS011;40582;53.100;6.686;2023-02-28T07:55:12;24.80;;;15.50;;
54683;SDS011;40582;53.100;6.686;2023-02-28T07:57:39;23.05;;;16.35;;
54683;SDS011;40582;53.100;6.686;2023-02-28T08:00:06;25.55;;;16.02;;
54683;SDS011;40582;53.100;6.686;2023-02-28T08:02:37;24.95;;;15.95;;
54683;SDS011;40582;53.100;6.686;2023-02-28T08:05:03;20.33;;;15.65;;
54683;SDS011;40582;53.100;6.686;2023-02-28T08:07:29;24.52;;;16.48;;
54683;SDS011;40582;53.100;6.686;2023-02-28T08:09:55;29.23;;;17.52;;
54683;SDS011;40582;53.100;6.686;2023-02-28T08:12:21;21.33;;;16.35;;
54683;SDS011;40582;53.100;6.686;2023-02-28T08:14:47;25.23;;;16.70;;
54683;SDS011;40582;53.100;6.686;2023-02-28T08:17:15;32.67;;;18.88;;
54683;SDS011;40582;53.100;6.686;2023-02-28T08:19:41;24.83;;;16.42;;
54683;SDS011;40582;53.100;6.686;2023-02-28T08:22:07;20.05;;;15.95;;
54683;SDS011;40582;53.100;6.686;2023-02-28T08:24:32;19.40;;;14.95;;
54683;SDS011;40582;53.100;6.686;2023-02-28T08:26:58;23.20;;;14.63;;
54683;SDS011;40582;53.100;6.686;2023-02-28T08:29:24;20.75;;;14.85;;
54683;SDS011;40582;53.100;6.686;2023-02-28T08:31:50;24.02;;;16.40;;
54683;SDS011;40582;53.100;6.686;2023-02-28T08:34:16;23.75;;;15.13;;
54683;SDS011;40582;53.100;6.686;2023-02-28T08:36:42;23.85;;;15.73;;
54683;SDS011;40582;53.100;6.686;2023-02-28T08:39:09;21.58;;;16.02;;
54683;SDS011;40582;53.100;6.686;2023-02-28T08:41:35;25.40;;;15.80;;
54683;SDS011;40582;53.100;6.686;2023-02-28T08:44:02;20.77;;;16.13;;
54683;SDS011;40582;53.100;6.686;2023-02-28T08:46:28;22.35;;;16.30;;
54683;SDS011;40582;53.100;6.686;2023-02-28T08:48:54;22.85;;;15.07;;
54683;SDS011;40582;53.100;6.686;2023-02-28T08:51:24;23.23;;;15.93;;
54683;SDS011;40582;53.100;6.686;2023-02-28T08:53:57;24.35;;;15.52;;
54683;SDS011;40582;53.100;6.686;2023-02-28T08:56:24;20.63;;;14.88;;
54683;SDS011;40582;53.100;6.686;2023-02-28T08:58:51;19.90;;;14.60;;
54683;SDS011;40582;53.100;6.686;2023-02-28T09:01:21;19.73;;;14.13;;
54683;SDS011;40582;53.100;6.686;2023-02-28T09:03:49;23.45;;;14.93;;
54683;SDS011;40582;53.100;6.686;2023-02-28T09:06:16;16.65;;;13.60;;
54683;SDS011;40582;53.100;6.686;2023-02-28T09:08:44;24.50;;;14.68;;
54683;SDS011;40582;53.100;6.686;2023-02-28T09:11:10;19.98;;;13.15;;
54683;SDS011;40582;53.100;6.686;2023-02-28T09:13:36;23.33;;;13.15;;
54683;SDS011;40582;53.100;6.686;2023-02-28T09:16:03;22.33;;;13.90;;
54683;SDS011;40582;53.100;6.686;2023-02-28T09:18:30;20.17;;;12.88;;
54683;SDS011;40582;53.100;6.686;2023-02-28T09:20:56;17.58;;;11.68;;
54683;SDS011;40582;53.100;6.686;2023-02-28T09:23:23;16.92;;;12.00;;
54683;SDS011;40582;53.100;6.686;2023-02-28T09:25:50;19.15;;;12.77;;
54683;SDS011;40582;53.100;6.686;2023-02-28T09:28:18;23.13;;;13.27;;
54683;SDS011;40582;53.100;6.686;2023-02-28T09:30:45;20.38;;;12.82;;
54683;SDS011;40582;53.100;6.686;2023-02-28T09:33:12;19.83;;;12.07;;
54683;SDS011;40582;53.100;6.686;2023-02-28T09:35:39;21.13;;;12.57;;
54683;SDS011;40582;53.100;6.686;2023-02-28T09:38:05;16.63;;;12.18;;
54683;SDS011;40582;53.100;6.686;2023-02-28T09:40:34;17.27;;;11.55;;
54683;SDS011;40582;53.100;6.686;2023-02-28T09:43:02;16.67;;;11.38;;
54683;SDS011;40582;53.100;6.686;2023-02-28T09:45:30;19.77;;;12.55;;
54683;SDS011;40582;53.100;6.686;2023-02-28T09:48:01;20.35;;;12.38;;
54683;SDS011;40582;53.100;6.686;2023-02-28T09:50:47;16.00;;;11.30;;
54683;SDS011;40582;53.100;6.686;2023-02-28T09:53:27;17.23;;;11.90;;
54683;SDS011;40582;53.100;6.686;2023-02-28T09:56:01;17.20;;;11.55;;
54683;SDS011;40582;53.100;6.686;2023-02-28T10:01:01;13.52;;;9.95;;
54683;SDS011;40582;53.100;6.686;2023-02-28T10:03:39;15.05;;;10.18;;
54683;SDS011;40582;53.100;6.686;2023-02-28T10:06:13;20.63;;;10.13;;
54683;SDS011;40582;53.100;6.686;2023-02-28T10:09:02;16.35;;;9.40;;
54683;SDS011;40582;53.100;6.686;2023-02-28T10:11:32;11.20;;;7.00;;
54683;SDS011;40582;53.100;6.686;2023-02-28T10:14:10;8.60;;;7.20;;
54683;SDS011;40582;53.100;6.686;2023-02-28T10:16:53;11.13;;;7.60;;
54683;SDS011;40582;53.100;6.686;2023-02-28T10:19:27;10.27;;;5.07;;
54683;SDS011;40582;53.100;6.686;2023-02-28T10:22:11;6.95;;;4.28;;
54683;SDS011;40582;53.100;6.686;2023-02-28T10:24:43;10.13;;;5.85;;
54683;SDS011;40582;53.100;6.686;2023-02-28T10:30:02;7.65;;;3.92;;
54683;SDS011;40582;53.100;6.686;2023-02-28T10:32:30;11.13;;;3.90;;
54683;SDS011;40582;53.100;6.686;2023-02-28T10:37:49;9.93;;;5.32;;
54683;SDS011;40582;53.100;6.686;2023-02-28T10:43:04;7.20;;;5.35;;
54683;SDS011;40582;53.100;6.686;2023-02-28T10:45:52;10.48;;;5.07;;
54683;SDS011;40582;53.100;6.686;2023-02-28T10:51:00;6.97;;;4.78;;
54683;SDS011;40582;53.100;6.686;2023-02-28T10:56:24;7.13;;;4.93;;
54683;SDS011;40582;53.100;6.686;2023-02-28T10:59:28;9.13;;;4.50;;
54683;SDS011;40582;53.100;6.686;2023-02-28T11:01:52;8.95;;;5.10;;
54683;SDS011;40582;53.100;6.686;2023-02-28T11:04:19;10.70;;;4.90;;
54683;SDS011;40582;53.100;6.686;2023-02-28T11:07:06;7.75;;;4.80;;
54683;SDS011;40582;53.100;6.686;2023-02-28T11:09:48;8.13;;;4.97;;
54683;SDS011;40582;53.100;6.686;2023-02-28T11:12:20;9.18;;;4.97;;
54683;SDS011;40582;53.100;6.686;2023-02-28T11:15:07;8.73;;;5.72;;
54683;SDS011;40582;53.100;6.686;2023-02-28T11:20:52;7.05;;;5.72;;
54683;SDS011;40582;53.100;6.686;2023-02-28T11:23:21;11.73;;;6.00;;
54683;SDS011;40582;53.100;6.686;2023-02-28T11:25:52;12.10;;;6.55;;
54683;SDS011;40582;53.100;6.686;2023-02-28T11:28:26;10.40;;;6.13;;
54683;SDS011;40582;53.100;6.686;2023-02-28T11:33:45;9.55;;;6.68;;
54683;SDS011;40582;53.100;6.686;2023-02-28T11:36:22;10.32;;;6.35;;
54683;SDS011;40582;53.100;6.686;2023-02-28T11:38:50;8.27;;;5.95;;
54683;SDS011;40582;53.100;6.686;2023-02-28T11:47:04;12.63;;;7.32;;
54683;SDS011;40582;53.100;6.686;2023-02-28T11:52:45;8.73;;;6.43;;
54683;SDS011;40582;53.100;6.686;2023-02-28T12:00:44;10.48;;;6.78;;
54683;SDS011;40582;53.100;6.686;2023-02-28T12:22:51;9.73;;;6.68;;
54683;SDS011;40582;53.100;6.686;2023-02-28T12:28:24;8.07;;;6.05;;
54683;SDS011;40582;53.100;6.686;2023-02-28T12:31:00;9.70;;;6.88;;
54683;SDS011;40582;53.100;6.686;2023-02-28T12:33:35;13.10;;;6.85;;
54683;SDS011;40582;53.100;6.686;2023-02-28T12:39:12;9.48;;;6.18;;
54683;SDS011;40582;53.100;6.686;2023-02-28T12:41:35;12.00;;;6.65;;
54683;SDS011;40582;53.100;6.686;2023-02-28T12:44:30;12.65;;;6.72;;
54683;SDS011;40582;53.100;6.686;2023-02-28T12:47:01;14.55;;;7.10;;
54683;SDS011;40582;53.100;6.686;2023-02-28T12:49:39;9.93;;;6.45;;
54683;SDS011;40582;53.100;6.686;2023-02-28T12:52:14;8.88;;;6.82;;
54683;SDS011;40582;53.100;6.686;2023-02-28T13:00:52;9.85;;;6.60;;
54683;SDS011;40582;53.100;6.686;2023-02-28T13:06:27;11.98;;;6.40;;
54683;SDS011;40582;53.100;6.686;2023-02-28T13:09:10;11.00;;;6.43;;
54683;SDS011;40582;53.100;6.686;2023-02-28T13:11:47;13.07;;;7.47;;
54683;SDS011;40582;53.100;6.686;2023-02-28T13:16:59;11.55;;;5.80;;
54683;SDS011;40582;53.100;6.686;2023-02-28T13:19:40;11.05;;;5.28;;
54683;SDS011;40582;53.100;6.686;2023-02-28T13:24:54;9.40;;;5.07;;
54683;SDS011;40582;53.100;6.686;2023-02-28T13:29:49;10.60;;;5.60;;
54683;SDS011;40582;53.100;6.686;2023-02-28T13:47:33;12.90;;;6.28;;
54683;SDS011;40582;53.100;6.686;2023-02-28T13:50:41;10.95;;;5.93;;
54683;SDS011;40582;53.100;6.686;2023-02-28T14:01:26;7.53;;;5.60;;
54683;SDS011;40582;53.100;6.686;2023-02-28T14:04:46;11.73;;;5.65;;
54683;SDS011;40582;53.100;6.686;2023-02-28T14:07:07;9.32;;;6.30;;
54683;SDS011;40582;53.100;6.686;2023-02-28T14:09:35;16.92;;;5.30;;
54683;SDS011;40582;53.100;6.686;2023-02-28T14:18:05;9.70;;;5.95;;
54683;SDS011;40582;53.100;6.686;2023-02-28T14:20:53;9.18;;;5.72;;
54683;SDS011;40582;53.100;6.686;2023-02-28T14:26:29;9.02;;;5.38;;
54683;SDS011;40582;53.100;6.686;2023-02-28T14:32:03;10.50;;;5.60;;
54683;SDS011;40582;53.100;6.686;2023-02-28T14:37:20;8.63;;;5.57;;
54683;SDS011;40582;53.100;6.686;2023-02-28T14:39:52;9.90;;;5.80;;
54683;SDS011;40582;53.100;6.686;2023-02-28T14:42:29;10.10;;;6.30;;
54683;SDS011;40582;53.100;6.686;2023-02-28T14:44:59;12.80;;;6.00;;
54683;SDS011;40582;53.100;6.686;2023-02-28T14:47:30;8.15;;;5.78;;
54683;SDS011;40582;53.100;6.686;2023-02-28T14:49:58;9.63;;;6.05;;
54683;SDS011;40582;53.100;6.686;2023-02-28T14:52:26;9.25;;;5.90;;
54683;SDS011;40582;53.100;6.686;2023-02-28T14:55:04;8.18;;;5.57;;
54683;SDS011;40582;53.100;6.686;2023-02-28T14:57:39;10.80;;;5.97;;
54683;SDS011;40582;53.100;6.686;2023-02-28T15:02:52;9.07;;;5.72;;
54683;SDS011;40582;53.100;6.686;2023-02-28T15:05:23;13.32;;;6.18;;
54683;SDS011;40582;53.100;6.686;2023-02-28T15:08:09;9.77;;;6.15;;
54683;SDS011;40582;53.100;6.686;2023-02-28T15:10:38;10.38;;;6.20;;
54683;SDS011;40582;53.100;6.686;2023-02-28T15:13:10;13.65;;;6.38;;
54683;SDS011;40582;53.100;6.686;2023-02-28T15:18:18;8.25;;;4.95;;
54683;SDS011;40582;53.100;6.686;2023-02-28T15:20:46;8.60;;;6.53;;
54683;SDS011;40582;53.100;6.686;2023-02-28T15:23:12;10.43;;;6.13;;
54683;SDS011;40582;53.100;6.686;2023-02-28T15:25:39;10.60;;;6.43;;
54683;SDS011;40582;53.100;6.686;2023-02-28T15:28:09;9.65;;;6.70;;
54683;SDS011;40582;53.100;6.686;2023-02-28T15:30:51;10.13;;;7.18;;
54683;SDS011;40582;53.100;6.686;2023-02-28T15:33:23;11.30;;;7.10;;
54683;SDS011;40582;53.100;6.686;2023-02-28T15:35:50;12.65;;;7.05;;
54683;SDS011;40582;53.100;6.686;2023-02-28T15:38:28;13.25;;;6.93;;
54683;SDS011;40582;53.100;6.686;2023-02-28T15:40:55;12.07;;;7.00;;
54683;SDS011;40582;53.100;6.686;2023-02-28T15:43:23;9.65;;;6.88;;
54683;SDS011;40582;53.100;6.686;2023-02-28T15:46:01;8.65;;;6.10;;
54683;SDS011;40582;53.100;6.686;2023-02-28T15:51:39;9.60;;;6.30;;
54683;SDS011;40582;53.100;6.686;2023-02-28T15:54:00;11.80;;;6.32;;
54683;SDS011;40582;53.100;6.686;2023-02-28T15:56:38;15.52;;;6.63;;
54683;SDS011;40582;53.100;6.686;2023-02-28T15:59:14;13.27;;;6.72;;
54683;SDS011;40582;53.100;6.686;2023-02-28T16:01:42;8.90;;;6.40;;
54683;SDS011;40582;53.100;6.686;2023-02-28T16:04:13;11.57;;;6.57;;
54683;SDS011;40582;53.100;6.686;2023-02-28T16:09:13;8.27;;;5.78;;
54683;SDS011;40582;53.100;6.686;2023-02-28T16:11:47;8.95;;;6.30;;
54683;SDS011;40582;53.100;6.686;2023-02-28T16:14:24;12.80;;;6.72;;
54683;SDS011;40582;53.100;6.686;2023-02-28T16:16:54;13.98;;;7.95;;
54683;SDS011;40582;53.100;6.686;2023-02-28T16:19:21;15.40;;;8.15;;
54683;SDS011;40582;53.100;6.686;2023-02-28T16:21:47;16.00;;;9.80;;
54683;SDS011;40582;53.100;6.686;2023-02-28T16:24:13;16.65;;;8.77;;
54683;SDS011;40582;53.100;6.686;2023-02-28T16:26:39;15.95;;;8.85;;
54683;SDS011;40582;53.100;6.686;2023-02-28T16:29:06;16.75;;;8.95;;
54683;SDS011;40582;53.100;6.686;2023-02-28T16:31:35;21.13;;;9.82;;
54683;SDS011;40582;53.100;6.686;2023-02-28T16:34:02;23.30;;;10.18;;
54683;SDS011;40582;53.100;6.686;2023-02-28T16:36:29;17.48;;;9.63;;
54683;SDS011;40582;53.100;6.686;2023-02-28T16:38:55;13.45;;;7.88;;
54683;SDS011;40582;53.100;6.686;2023-02-28T16:41:22;10.10;;;7.05;;
54683;SDS011;40582;53.100;6.686;2023-02-28T16:43:51;10.00;;;6.68;;
54683;SDS011;40582;53.100;6.686;2023-02-28T16:46:19;11.45;;;6.90;;
54683;SDS011;40582;53.100;6.686;2023-02-28T16:48:46;14.95;;;7.80;;
54683;SDS011;40582;53.100;6.686;2023-02-28T16:51:16;11.27;;;7.35;;
54683;SDS011;40582;53.100;6.686;2023-02-28T16:53:43;11.40;;;7.97;;
54683;SDS011;40582;53.100;6.686;2023-02-28T16:56:17;11.20;;;8.32;;
54683;SDS011;40582;53.100;6.686;2023-02-28T16:58:45;15.32;;;9.10;;
54683;SDS011;40582;53.100;6.686;2023-02-28T17:01:12;13.07;;;7.75;;
54683;SDS011;40582;53.100;6.686;2023-02-28T17:03:38;11.48;;;7.90;;
54683;SDS011;40582;53.100;6.686;2023-02-28T17:06:05;11.18;;;7.75;;
54683;SDS011;40582;53.100;6.686;2023-02-28T17:08:32;9.38;;;7.07;;
54683;SDS011;40582;53.100;6.686;2023-02-28T17:10:58;19.48;;;7.88;;
54683;SDS011;40582;53.100;6.686;2023-02-28T17:13:24;12.38;;;7.68;;
54683;SDS011;40582;53.100;6.686;2023-02-28T17:15:50;15.77;;;8.25;;
54683;SDS011;40582;53.100;6.686;2023-02-28T17:18:16;15.27;;;8.20;;
54683;SDS011;40582;53.100;6.686;2023-02-28T17:20:44;13.80;;;8.50;;
54683;SDS011;40582;53.100;6.686;2023-02-28T17:23:11;10.40;;;8.38;;
54683;SDS011;40582;53.100;6.686;2023-02-28T17:25:36;16.60;;;9.13;;
54683;SDS011;40582;53.100;6.686;2023-02-28T17:28:02;11.35;;;7.93;;
54683;SDS011;40582;53.100;6.686;2023-02-28T17:30:28;11.07;;;7.65;;